This is the latest recevied weather packets stored in our database for station/object AK4NG. If no packets are shown the sender has not sent any weather packets the latest 10 day(s).
| Time | Temp. | Humidity | Pressure | Rain* | Wind** | Luminosity | Snow |
|---|---|---|---|---|---|---|---|
| 1777987840 | 18.33° C | 71% | 1017.1 hPa | 0 mm | - | 309 W/m² | - |
| 1777987537 | 17.78° C | 71% | 1017.1 hPa | 0 mm | - | 301 W/m² | - |
| 1777987235 | 17.78° C | 71% | 1016.8 hPa | 0 mm | - | 304 W/m² | - |
| 1777986931 | 17.22° C | 75% | 1016.9 hPa | 0 mm | - | 323 W/m² | - |
| 1777986630 | 16.67° C | 74% | 1016.7 hPa | 0 mm | - | 318 W/m² | - |
| 1777986327 | 16.11° C | 76% | 1016.8 hPa | 0 mm | - | 294 W/m² | - |
| 1777986026 | 15.56° C | 76% | 1016.6 hPa | 0 mm | - | 240 W/m² | - |
| 1777985722 | 15.56° C | 76% | 1016.5 hPa | 0 mm | - | 233 W/m² | - |
| 1777985418 | 15.56° C | 76% | 1016.4 hPa | 0 mm | - | 240 W/m² | - |
| 1777985115 | 15° C | 80% | 1016.4 hPa | 0 mm | - | 126 W/m² | - |
| 1777984812 | 15.56° C | 75% | 1016.4 hPa | 0 mm | - | 101 W/m² | - |
| 1777984508 | 15.56° C | 79% | 1016.1 hPa | 0 mm | - | 162 W/m² | - |
| 1777984204 | 15° C | 78% | 1016.2 hPa | 0 mm | - | 135 W/m² | - |
| 1777983901 | 13.89° C | 84% | 1016 hPa | 0 mm | - | 139 W/m² | - |
| 1777983598 | 13.33° C | 85% | 1016.2 hPa | 0 mm | - | 111 W/m² | - |
| 1777983295 | 12.78° C | 86% | 1015.9 hPa | 0 mm | - | 77 W/m² | - |
| 1777982991 | 12.78° C | 85% | 1016 hPa | 0 mm | - | 56 W/m² | - |
| 1777982687 | 12.22° C | 87% | 1016 hPa | 0 mm | - | 51 W/m² | - |
| 1777982386 | 12.22° C | 87% | 1016 hPa | 0 mm | - | 52 W/m² | - |
| 1777982078 | 11.67° C | 88% | 1015.9 hPa | 0 mm | - | 49 W/m² | - |
| 1777981776 | 11.11° C | 90% | 1015.7 hPa | 0 mm | - | 51 W/m² | - |
| 1777981471 | 11.11° C | 91% | 1015.7 hPa | 0 mm | - | 46 W/m² | - |
| 1777981167 | 11.11° C | 91% | 1015.7 hPa | 0 mm | - | 38 W/m² | - |
| 1777980864 | 11.11° C | 91% | 1015.6 hPa | 0 mm | - | 32 W/m² | - |
| 1777980560 | 11.11° C | 92% | 1015.4 hPa | 0 mm | - | 23 W/m² | - |
* Rain latest hour (hover to see other rain measurements)
** Current wind speed in m/s (hover to see current wind gust speed)